Markham, Texas
Current Conditions -  °F | °C
As of 8:28 PM on Saturday 22 Nov 2014 (Local Time) from KPSX Reporting Station
Thunderstorm Thunderstorm  
Wind Chill: 68°   Ceiling: 4000
Heat Index: 68°   Visibility: 9mi
Dew Point: 67°   Wind: 14mph
Humidity: 96%   Direction: 140°SE
Pressure: 29.77"   Gusts: NA
Location:  28.96°N, 96.07°W
Report Text: KPSX 230228Z AUTO 14012KT 9SM TS FEW016 SCT025 BKN040 20/19 A2977 RMK AO2 LTG DSNT ALQDS RAE02 TSB22 P0000 T02000194
Loading
Personal Weather Stations






























Interactive Weather Map New forecast layout! Learn more

10-Day Weather Forecast

Advertisements
Track Severe Weather on mobile